Jard de Oriente, Puerto Rico
Current Conditions -  °F | °C
As of 6:53 PM on Monday 24 Nov 2014 (Local Time) from TJNR Reporting Station
Scattered Clouds Scattered Clouds  
Wind Chill: 81°   Ceiling: Unl
Heat Index: 85°   Visibility: 10mi
Dew Point: 72°   Wind: 8mph
Humidity: 74%   Direction: 70°ENE
Pressure: 30.05"   Gusts: NA
Location:  18.1853°N, 65.8667°W
Report Text: TJNR 242253Z AUTO 07007KT 10SM SCT070 27/22 A3005 RMK AO2 SLP174 T02720222 $
Loading
Personal Weather Stations






























Interactive Weather Map New forecast layout! Learn more

10-Day Weather Forecast

Advertisements
Track Severe Weather on mobile